createdAt,value
2022-10-26T00:00:33.514Z,100.00
2022-10-26T00:03:00.176Z,100.00
2022-10-26T00:05:26.930Z,100.00
2022-10-26T00:07:53.675Z,100.00
2022-10-26T00:10:21.816Z,100.00
2022-10-26T00:12:50.718Z,100.00
2022-10-26T00:15:18.005Z,100.00
2022-10-26T00:17:46.237Z,100.00
2022-10-26T00:20:13.743Z,100.00
2022-10-26T00:22:40.683Z,100.00
2022-10-26T00:25:08.007Z,100.00
2022-10-26T00:27:34.888Z,100.00
2022-10-26T00:30:01.601Z,100.00
2022-10-26T00:32:28.566Z,100.00
2022-10-26T00:34:56.642Z,100.00
2022-10-26T00:37:23.313Z,100.00
2022-10-26T00:39:49.931Z,100.00
2022-10-26T00:42:20.491Z,100.00
2022-10-26T00:44:58.854Z,100.00
2022-10-26T00:47:33.489Z,100.00
2022-10-26T00:50:07.015Z,100.00
2022-10-26T00:52:34.257Z,100.00
2022-10-26T00:55:01.049Z,100.00
2022-10-26T00:57:28.220Z,100.00
2022-10-26T00:59:57.911Z,100.00
2022-10-26T01:02:24.675Z,100.00
2022-10-26T01:04:53.632Z,100.00
2022-10-26T01:09:54.947Z,100.00
2022-10-26T01:12:21.560Z,100.00
2022-10-26T01:14:48.475Z,100.00
2022-10-26T01:17:30.710Z,100.00
2022-10-26T01:20:30.016Z,100.00
2022-10-26T01:23:05.835Z,100.00
2022-10-26T01:26:01.707Z,100.00
2022-10-26T01:28:42.400Z,100.00
2022-10-26T01:31:13.797Z,100.00
2022-10-26T01:33:44.271Z,100.00
2022-10-26T01:36:13.777Z,100.00
2022-10-26T01:38:52.472Z,100.00
2022-10-26T01:41:27.020Z,100.00
2022-10-26T01:43:57.056Z,100.00
2022-10-26T01:46:27.208Z,100.00
2022-10-26T01:48:59.595Z,100.00
2022-10-26T01:51:27.705Z,100.00
2022-10-26T01:53:54.639Z,100.00
2022-10-26T01:56:25.351Z,100.00
2022-10-26T01:59:13.594Z,100.00
2022-10-26T02:02:14.233Z,100.00
2022-10-26T02:04:56.880Z,100.00
2022-10-26T02:07:31.895Z,100.00
2022-10-26T02:10:08.218Z,100.00
2022-10-26T02:12:44.045Z,100.00
2022-10-26T02:15:21.405Z,100.00
2022-10-26T02:17:54.545Z,100.00
2022-10-26T02:20:25.407Z,100.00
2022-10-26T02:22:54.868Z,100.00
2022-10-26T02:25:27.385Z,100.00
2022-10-26T02:27:57.806Z,100.00
2022-10-26T02:30:25.067Z,100.00
2022-10-26T02:32:56.636Z,100.00
2022-10-26T02:35:27.561Z,100.00
2022-10-26T02:37:57.411Z,100.00
2022-10-26T02:40:27.505Z,100.00
2022-10-26T02:42:57.786Z,100.00
2022-10-26T02:45:28.287Z,100.00
2022-10-26T02:47:57.181Z,100.00
2022-10-26T02:50:29.807Z,100.00
2022-10-26T02:53:05.613Z,100.00
2022-10-26T02:55:36.761Z,100.00
2022-10-26T02:58:09.281Z,100.00
2022-10-26T03:00:36.045Z,100.00
2022-10-26T03:03:04.970Z,100.00
2022-10-26T03:05:32.956Z,100.00
2022-10-26T03:08:00.534Z,100.00
2022-10-26T03:10:27.363Z,100.00
2022-10-26T03:12:54.127Z,100.00
2022-10-26T03:15:20.974Z,100.00
2022-10-26T03:17:48.137Z,100.00
2022-10-26T03:20:16.699Z,100.00
2022-10-26T03:22:43.425Z,100.00
2022-10-26T03:25:10.035Z,100.00
2022-10-26T03:27:37.906Z,100.00
2022-10-26T03:30:05.845Z,100.00
2022-10-26T03:32:32.440Z,100.00
2022-10-26T03:34:59.085Z,100.00
2022-10-26T03:37:27.119Z,100.00
2022-10-26T03:39:53.770Z,100.00
2022-10-26T03:42:20.530Z,100.00
2022-10-26T03:44:48.312Z,100.00
2022-10-26T03:47:14.981Z,100.00
2022-10-26T03:49:41.599Z,100.00
2022-10-26T03:52:08.242Z,100.00
2022-10-26T03:54:36.450Z,100.00
2022-10-26T03:57:03.050Z,100.00
2022-10-26T03:59:29.742Z,100.00
2022-10-26T04:01:57.884Z,100.00
2022-10-26T04:04:25.033Z,100.00
2022-10-26T04:06:51.823Z,100.00
2022-10-26T04:09:18.466Z,100.00
2022-10-26T04:11:46.467Z,100.00
2022-10-26T04:14:13.296Z,100.00
2022-10-26T04:16:40.109Z,100.00
2022-10-26T04:19:06.902Z,100.00
2022-10-26T04:21:33.707Z,100.00
2022-10-26T04:24:00.375Z,100.00
2022-10-26T04:26:27.299Z,100.00
2022-10-26T04:28:55.374Z,100.00
2022-10-26T04:31:22.075Z,100.00
2022-10-26T04:33:48.789Z,100.00
2022-10-26T04:36:15.367Z,100.00
2022-10-26T04:38:41.995Z,100.00
2022-10-26T04:41:08.618Z,100.00
2022-10-26T04:43:35.245Z,100.00
2022-10-26T04:46:03.311Z,100.00
2022-10-26T04:48:30.062Z,100.00
2022-10-26T04:50:59.059Z,100.00
2022-10-26T04:53:25.702Z,100.00
2022-10-26T04:55:56.513Z,100.00
2022-10-26T04:58:23.088Z,100.00
2022-10-26T05:00:49.721Z,100.00
2022-10-26T05:03:17.725Z,100.00
2022-10-26T05:05:44.302Z,100.00
2022-10-26T05:08:10.937Z,100.00
2022-10-26T05:10:37.559Z,100.00
2022-10-26T05:13:04.207Z,100.00
2022-10-26T05:15:30.915Z,100.00
2022-10-26T05:17:59.230Z,100.00
2022-10-26T05:20:31.387Z,100.00
2022-10-26T05:22:59.109Z,100.00
2022-10-26T05:25:26.606Z,100.00
2022-10-26T05:27:57.503Z,100.00
2022-10-26T05:30:24.120Z,100.00
2022-10-26T05:32:54.031Z,100.00
2022-10-26T05:35:20.859Z,100.00
2022-10-26T05:37:48.884Z,100.00
2022-10-26T05:40:16.642Z,100.00
2022-10-26T05:42:43.340Z,100.00
2022-10-26T05:45:10.598Z,100.00
2022-10-26T05:47:38.447Z,100.00
2022-10-26T05:50:06.158Z,100.00
2022-10-26T05:52:39.127Z,100.00
2022-10-26T05:55:08.485Z,100.00
2022-10-26T05:57:36.074Z,100.00
2022-10-26T06:00:06.670Z,100.00
2022-10-26T06:02:44.693Z,100.00
2022-10-26T06:05:18.989Z,100.00
2022-10-26T06:07:46.200Z,100.00
2022-10-26T06:10:15.516Z,100.00
2022-10-26T06:12:42.862Z,100.00
2022-10-26T06:15:15.933Z,100.00
2022-10-26T06:17:53.725Z,100.00
2022-10-26T06:20:36.167Z,100.00
2022-10-26T06:23:17.689Z,100.00
2022-10-26T06:25:51.483Z,100.00
2022-10-26T06:28:28.514Z,100.00
2022-10-26T06:30:56.245Z,100.00
2022-10-26T06:33:29.554Z,100.00
2022-10-26T06:36:08.797Z,100.00
2022-10-26T06:38:38.033Z,100.00
2022-10-26T06:41:07.114Z,100.00
2022-10-26T06:43:35.824Z,100.00
2022-10-26T06:46:13.580Z,100.00
2022-10-26T06:48:49.785Z,100.00
2022-10-26T06:51:17.533Z,100.00
2022-10-26T06:53:51.873Z,100.00
2022-10-26T06:56:20.662Z,100.00
2022-10-26T06:58:50.017Z,100.00
2022-10-26T07:01:18.188Z,100.00
2022-10-26T07:03:45.063Z,100.00
2022-10-26T07:06:11.832Z,100.00
2022-10-26T07:08:38.529Z,100.00
2022-10-26T07:11:05.761Z,100.00
2022-10-26T07:13:34.003Z,100.00
2022-10-26T07:16:01.682Z,100.00
2022-10-26T07:18:28.406Z,100.00
2022-10-26T07:20:55.154Z,100.00
2022-10-26T07:23:23.201Z,100.00
2022-10-26T07:25:49.918Z,100.00
2022-10-26T07:28:16.646Z,100.00
2022-10-26T07:30:44.744Z,100.00
2022-10-26T07:33:13.084Z,100.00
2022-10-26T07:35:40.386Z,100.00
2022-10-26T07:38:07.319Z,100.00
2022-10-26T07:40:34.594Z,100.00
2022-10-26T07:43:01.894Z,100.00
2022-10-26T07:45:30.925Z,100.00
2022-10-26T07:47:58.903Z,100.00
2022-10-26T07:50:25.900Z,100.00
2022-10-26T07:52:52.929Z,100.00
2022-10-26T07:55:20.371Z,100.00
2022-10-26T07:57:49.695Z,100.00
2022-10-26T08:00:21.573Z,100.00
2022-10-26T08:02:48.227Z,100.00
2022-10-26T08:05:16.601Z,100.00
2022-10-26T08:07:44.505Z,100.00
2022-10-26T08:10:12.474Z,100.00
2022-10-26T08:12:39.663Z,100.00
2022-10-26T08:15:07.470Z,100.00
2022-10-26T08:17:34.145Z,100.00
2022-10-26T08:20:00.844Z,100.00
2022-10-26T08:22:30.965Z,100.00
2022-10-26T08:24:57.659Z,100.00
2022-10-26T08:27:27.863Z,100.00
2022-10-26T08:29:54.474Z,100.00
2022-10-26T08:32:21.182Z,100.00
2022-10-26T08:34:47.864Z,100.00
2022-10-26T08:37:14.599Z,100.00
2022-10-26T08:39:42.689Z,100.00
2022-10-26T08:42:14.800Z,100.00
2022-10-26T08:44:46.366Z,100.00
2022-10-26T08:47:19.750Z,100.00
2022-10-26T08:49:52.481Z,100.00
2022-10-26T08:52:25.085Z,100.00
2022-10-26T08:54:55.602Z,100.00
2022-10-26T08:57:27.008Z,100.00
2022-10-26T08:59:59.254Z,100.00
2022-10-26T09:02:26.286Z,100.00
2022-10-26T09:04:54.168Z,100.00
2022-10-26T09:07:33.549Z,100.00
2022-10-26T09:10:11.937Z,100.00
2022-10-26T09:12:48.389Z,100.00
2022-10-26T09:15:23.625Z,100.00
2022-10-26T09:18:00.031Z,100.00
2022-10-26T09:20:57.703Z,100.00
2022-10-26T09:23:44.383Z,100.00
2022-10-26T09:26:14.706Z,100.00
2022-10-26T09:28:44.939Z,100.00
2022-10-26T09:31:16.399Z,100.00
2022-10-26T09:33:43.142Z,100.00
2022-10-26T09:36:16.745Z,100.00
2022-10-26T09:38:47.375Z,100.00
2022-10-26T09:41:25.126Z,100.00
2022-10-26T09:43:58.987Z,100.00
2022-10-26T09:46:31.133Z,100.00
2022-10-26T09:51:35.045Z,100.00
2022-10-26T09:54:03.086Z,100.00
2022-10-26T09:56:32.152Z,100.00
2022-10-26T09:59:07.247Z,100.00
2022-10-26T10:01:38.263Z,100.00
2022-10-26T10:04:28.254Z,100.00
2022-10-26T10:07:14.042Z,100.00
2022-10-26T10:09:40.808Z,100.00
2022-10-26T10:12:19.763Z,98.31
2022-10-26T10:14:56.687Z,99.43
2022-10-26T10:17:24.559Z,99.43
2022-10-26T10:19:52.034Z,97.88
2022-10-26T10:22:23.635Z,93.70
2022-10-26T10:24:54.502Z,93.55
2022-10-26T10:27:25.224Z,94.07
2022-10-26T10:29:53.724Z,92.94
2022-10-26T10:32:22.347Z,90.26
2022-10-26T10:34:49.653Z,92.35
2022-10-26T10:37:25.401Z,90.71
2022-10-26T10:39:57.080Z,95.46
2022-10-26T10:42:29.926Z,96.78
2022-10-26T10:44:57.844Z,98.94
2022-10-26T10:47:27.335Z,96.73
2022-10-26T10:49:58.863Z,97.74
2022-10-26T10:52:27.588Z,91.26
2022-10-26T10:55:03.159Z,92.11
2022-10-26T10:57:41.182Z,91.07
2022-10-26T11:00:11.553Z,85.79
2022-10-26T11:03:05.483Z,90.40
2022-10-26T11:05:45.797Z,96.22
2022-10-26T11:08:19.779Z,92.72
2022-10-26T11:10:51.967Z,94.24
2022-10-26T11:13:23.921Z,94.32
2022-10-26T11:15:55.947Z,93.76
2022-10-26T11:18:30.540Z,98.65
2022-10-26T11:21:03.076Z,97.54
2022-10-26T11:23:36.442Z,90.52
2022-10-26T11:26:11.194Z,86.26
2022-10-26T11:28:47.951Z,85.22
2022-10-26T11:31:20.554Z,84.50
2022-10-26T11:33:54.582Z,87.45
2022-10-26T11:36:24.778Z,87.80
2022-10-26T11:38:59.942Z,88.62
2022-10-26T11:41:34.210Z,88.73
2022-10-26T11:44:12.413Z,91.40
2022-10-26T11:46:43.202Z,90.16
2022-10-26T11:49:17.457Z,90.65
2022-10-26T11:51:49.605Z,90.78
2022-10-26T11:56:57.099Z,88.11
2022-10-26T11:59:29.317Z,88.05
2022-10-26T12:02:05.461Z,87.53
2022-10-26T12:04:35.627Z,87.92
2022-10-26T12:07:08.536Z,85.99
2022-10-26T12:09:39.773Z,85.65
2022-10-26T12:12:10.891Z,85.88
2022-10-26T12:14:44.728Z,84.52
2022-10-26T12:17:18.014Z,80.91
2022-10-26T12:19:51.863Z,80.60
2022-10-26T12:22:20.837Z,80.99
2022-10-26T12:25:05.905Z,82.50
2022-10-26T12:27:50.578Z,83.56
2022-10-26T12:30:28.185Z,85.30
2022-10-26T12:32:57.428Z,86.04
2022-10-26T12:35:36.446Z,86.68
2022-10-26T12:38:48.131Z,84.32
2022-10-26T12:41:26.424Z,80.31
2022-10-26T12:44:23.763Z,78.86
2022-10-26T12:46:51.763Z,77.92
2022-10-26T12:49:54.349Z,78.17
2022-10-26T12:52:26.240Z,100.00
2022-10-26T12:55:24.648Z,100.00
2022-10-26T12:58:04.169Z,100.00
2022-10-26T13:00:33.471Z,100.00
2022-10-26T13:03:17.927Z,100.00
2022-10-26T13:06:01.055Z,100.00
2022-10-26T13:08:28.705Z,100.00
2022-10-26T13:11:05.308Z,75.84
2022-10-26T13:13:34.118Z,76.60
2022-10-26T13:16:02.141Z,76.09
2022-10-26T13:18:30.763Z,75.68
2022-10-26T13:21:07.307Z,75.96
2022-10-26T13:23:37.686Z,75.26
2022-10-26T13:26:07.933Z,76.48
2022-10-26T13:28:44.857Z,75.15
2022-10-26T13:31:50.696Z,74.48
2022-10-26T13:34:20.960Z,75.13
2022-10-26T13:36:53.251Z,75.62
2022-10-26T13:39:23.996Z,76.88
2022-10-26T13:41:53.739Z,78.65
2022-10-26T13:44:26.049Z,78.95
2022-10-26T13:46:58.334Z,80.33
2022-10-26T13:49:31.330Z,79.95
2022-10-26T13:52:03.975Z,80.79
2022-10-26T13:54:34.631Z,81.07
2022-10-26T13:57:10.641Z,82.20
2022-10-26T13:59:38.795Z,82.81
2022-10-26T14:02:05.852Z,83.31
2022-10-26T14:04:33.741Z,84.18
2022-10-26T14:07:00.312Z,84.80
2022-10-26T14:09:28.939Z,86.25
2022-10-26T14:12:01.790Z,84.22
2022-10-26T14:14:29.565Z,84.54
2022-10-26T14:16:56.712Z,84.97
2022-10-26T14:19:25.240Z,85.03
2022-10-26T14:21:53.353Z,85.41
2022-10-26T14:24:27.552Z,85.48
2022-10-26T14:27:14.540Z,86.51
2022-10-26T14:29:40.988Z,87.10
2022-10-26T14:32:19.748Z,87.89
2022-10-26T14:34:46.799Z,87.89
2022-10-26T14:37:18.984Z,87.88
2022-10-26T14:39:47.775Z,88.88
2022-10-26T14:42:16.053Z,89.78
2022-10-26T14:44:42.903Z,89.92
2022-10-26T14:47:13.071Z,90.60
2022-10-26T14:49:45.498Z,91.36
2022-10-26T14:52:17.081Z,92.32
2022-10-26T14:54:56.241Z,92.77
2022-10-26T14:57:35.785Z,92.42
2022-10-26T15:00:04.618Z,92.81
2022-10-26T15:02:31.060Z,93.14
2022-10-26T15:04:58.511Z,93.11
2022-10-26T15:07:33.993Z,92.96
2022-10-26T15:10:01.791Z,93.36
2022-10-26T15:12:32.753Z,94.78
2022-10-26T15:15:06.291Z,95.00
2022-10-26T15:17:36.721Z,96.16
2022-10-26T15:20:05.023Z,96.38
2022-10-26T15:22:32.446Z,97.01
2022-10-26T15:25:03.413Z,97.42
2022-10-26T15:27:30.192Z,97.77
2022-10-26T15:30:09.193Z,99.40
2022-10-26T15:32:35.812Z,99.16
2022-10-26T15:35:20.816Z,100.00
2022-10-26T15:37:47.652Z,100.00
2022-10-26T15:40:16.266Z,100.00
2022-10-26T15:42:45.241Z,100.00
2022-10-26T15:45:15.475Z,100.00
2022-10-26T15:47:42.087Z,100.00
2022-10-26T15:50:11.722Z,100.00
2022-10-26T15:52:38.433Z,100.00
2022-10-26T15:55:05.339Z,100.00
2022-10-26T15:57:33.210Z,100.00
2022-10-26T15:59:59.778Z,100.00
2022-10-26T16:02:27.432Z,100.00
2022-10-26T16:04:54.188Z,100.00
2022-10-26T16:07:21.499Z,100.00
2022-10-26T16:09:48.437Z,100.00
2022-10-26T16:12:15.265Z,100.00
2022-10-26T16:15:03.925Z,100.00
2022-10-26T16:17:29.636Z,100.00
2022-10-26T16:19:56.119Z,100.00
2022-10-26T16:22:22.650Z,100.00
2022-10-26T16:24:49.165Z,100.00
2022-10-26T16:27:15.764Z,100.00
2022-10-26T16:29:43.556Z,100.00
2022-10-26T16:32:10.220Z,100.00
2022-10-26T16:34:36.779Z,100.00
2022-10-26T16:37:03.305Z,100.00
2022-10-26T16:39:29.909Z,100.00
2022-10-26T16:41:56.691Z,100.00
2022-10-26T16:44:23.147Z,100.00
2022-10-26T16:46:51.006Z,100.00
2022-10-26T16:49:18.160Z,100.00
2022-10-26T16:51:44.766Z,100.00
2022-10-26T16:54:11.354Z,100.00
2022-10-26T16:56:37.775Z,100.00
2022-10-26T16:59:04.427Z,100.00
2022-10-26T17:01:31.153Z,100.00
2022-10-26T17:04:00.981Z,100.00
2022-10-26T17:06:27.450Z,100.00
2022-10-26T17:08:53.925Z,100.00
2022-10-26T17:11:21.097Z,100.00
2022-10-26T17:13:48.004Z,100.00
2022-10-26T17:16:16.089Z,100.00
2022-10-26T17:18:43.424Z,100.00
2022-10-26T17:21:12.429Z,100.00
2022-10-26T17:23:38.885Z,100.00
2022-10-26T17:26:06.487Z,100.00
2022-10-26T17:28:33.311Z,100.00
2022-10-26T17:31:03.521Z,100.00
2022-10-26T17:33:31.342Z,100.00
2022-10-26T17:35:57.810Z,100.00
2022-10-26T17:38:25.719Z,100.00
2022-10-26T17:40:52.186Z,100.00
2022-10-26T17:43:18.931Z,100.00
2022-10-26T17:45:45.483Z,100.00
2022-10-26T17:48:12.029Z,100.00
2022-10-26T17:50:38.628Z,100.00
2022-10-26T17:53:07.534Z,100.00
2022-10-26T17:55:35.481Z,100.00
2022-10-26T17:58:01.912Z,100.00
2022-10-26T18:00:28.499Z,100.00
2022-10-26T18:02:55.181Z,100.00
2022-10-26T18:05:21.854Z,100.00
2022-10-26T18:07:48.707Z,100.00
2022-10-26T18:10:36.463Z,100.00
2022-10-26T18:13:03.453Z,100.00
2022-10-26T18:15:30.071Z,100.00
2022-10-26T18:17:58.456Z,100.00
2022-10-26T18:20:27.470Z,100.00
2022-10-26T18:22:54.104Z,100.00
2022-10-26T18:25:20.607Z,100.00
2022-10-26T18:27:48.564Z,100.00
2022-10-26T18:30:16.697Z,100.00
2022-10-26T18:32:43.478Z,100.00
2022-10-26T18:35:11.827Z,100.00
2022-10-26T18:37:39.714Z,100.00
2022-10-26T18:40:07.279Z,100.00
2022-10-26T18:42:33.992Z,100.00
2022-10-26T18:45:02.951Z,100.00
2022-10-26T18:47:31.389Z,100.00
2022-10-26T18:50:01.471Z,100.00
2022-10-26T18:52:28.407Z,100.00
2022-10-26T18:54:56.244Z,100.00
2022-10-26T18:57:27.115Z,100.00
2022-10-26T18:59:55.121Z,100.00
2022-10-26T19:02:24.801Z,100.00
2022-10-26T19:04:53.765Z,100.00
2022-10-26T19:07:20.789Z,100.00
2022-10-26T19:09:47.215Z,100.00
2022-10-26T19:12:14.355Z,100.00
2022-10-26T19:14:41.330Z,100.00
2022-10-26T19:17:08.297Z,100.00
2022-10-26T19:19:35.658Z,100.00
2022-10-26T19:22:04.623Z,100.00
2022-10-26T19:24:33.186Z,100.00
2022-10-26T19:27:01.020Z,100.00
2022-10-26T19:29:28.169Z,100.00
2022-10-26T19:31:55.262Z,100.00
2022-10-26T19:34:24.464Z,100.00
2022-10-26T19:36:53.207Z,100.00
2022-10-26T19:39:22.910Z,100.00
2022-10-26T19:41:49.858Z,100.00
2022-10-26T19:44:20.726Z,100.00
2022-10-26T19:46:51.912Z,100.00
2022-10-26T19:49:20.357Z,100.00
2022-10-26T19:51:48.470Z,100.00
2022-10-26T19:54:16.460Z,100.00
2022-10-26T19:56:45.805Z,100.00
2022-10-26T19:59:14.451Z,100.00
2022-10-26T20:01:42.641Z,100.00
2022-10-26T20:04:10.514Z,100.00
2022-10-26T20:06:38.819Z,100.00
2022-10-26T20:09:06.708Z,100.00
2022-10-26T20:11:37.101Z,100.00
2022-10-26T20:14:08.815Z,100.00
2022-10-26T20:16:37.516Z,100.00
2022-10-26T20:19:05.553Z,100.00
2022-10-26T20:21:32.454Z,100.00
2022-10-26T20:23:59.150Z,100.00
2022-10-26T20:26:28.493Z,100.00
2022-10-26T20:28:56.472Z,100.00
2022-10-26T20:31:24.903Z,100.00
2022-10-26T20:33:53.224Z,100.00
2022-10-26T20:36:20.790Z,100.00
2022-10-26T20:38:49.058Z,100.00
2022-10-26T20:41:16.494Z,100.00
2022-10-26T20:43:44.619Z,100.00
2022-10-26T20:46:17.327Z,100.00
2022-10-26T20:48:46.309Z,100.00
2022-10-26T20:51:19.783Z,100.00
2022-10-26T20:53:55.211Z,100.00
2022-10-26T20:56:25.415Z,100.00
2022-10-26T20:58:56.034Z,100.00
2022-10-26T21:01:25.549Z,100.00
2022-10-26T21:03:55.728Z,100.00
2022-10-26T21:06:25.657Z,100.00
2022-10-26T21:08:53.577Z,100.00
2022-10-26T21:11:23.099Z,100.00
2022-10-26T21:13:52.230Z,100.00
2022-10-26T21:16:19.705Z,100.00
2022-10-26T21:18:46.703Z,100.00
2022-10-26T21:21:14.993Z,100.00
2022-10-26T21:23:41.769Z,100.00
2022-10-26T21:26:09.235Z,100.00
2022-10-26T21:28:37.397Z,100.00
2022-10-26T21:31:05.225Z,100.00
2022-10-26T21:33:32.254Z,100.00
2022-10-26T21:35:59.411Z,100.00
2022-10-26T21:38:28.462Z,100.00
2022-10-26T21:41:02.784Z,100.00
2022-10-26T21:43:29.740Z,100.00
2022-10-26T21:45:57.010Z,100.00
2022-10-26T21:48:23.800Z,100.00
2022-10-26T21:50:50.478Z,100.00
2022-10-26T21:53:17.131Z,100.00
2022-10-26T21:55:45.250Z,100.00
2022-10-26T21:58:13.852Z,100.00
2022-10-26T22:00:40.698Z,100.00
2022-10-26T22:03:07.488Z,100.00
2022-10-26T22:05:34.126Z,100.00
2022-10-26T22:08:00.832Z,100.00
2022-10-26T22:10:27.494Z,100.00
2022-10-26T22:12:55.534Z,100.00
2022-10-26T22:15:22.235Z,100.00
2022-10-26T22:17:49.205Z,100.00
2022-10-26T22:20:16.452Z,100.00
2022-10-26T22:22:43.051Z,100.00
2022-10-26T22:25:09.939Z,100.00
2022-10-26T22:27:36.614Z,100.00
2022-10-26T22:30:06.941Z,100.00
2022-10-26T22:32:33.688Z,100.00
2022-10-26T22:35:10.877Z,100.00
2022-10-26T22:37:47.060Z,100.00
2022-10-26T22:40:13.897Z,100.00
2022-10-26T22:42:40.540Z,100.00
2022-10-26T22:45:09.694Z,100.00
2022-10-26T22:47:36.323Z,100.00
2022-10-26T22:50:03.182Z,100.00
2022-10-26T22:52:29.839Z,100.00
2022-10-26T22:54:56.536Z,100.00
2022-10-26T22:57:23.181Z,100.00
2022-10-26T22:59:49.853Z,100.00
2022-10-26T23:02:17.873Z,100.00
2022-10-26T23:04:44.743Z,100.00
2022-10-26T23:07:11.334Z,100.00
2022-10-26T23:09:37.969Z,100.00
2022-10-26T23:12:04.991Z,100.00
2022-10-26T23:14:31.605Z,100.00
2022-10-26T23:16:58.260Z,100.00
2022-10-26T23:19:26.271Z,100.00
2022-10-26T23:21:53.011Z,100.00
2022-10-26T23:24:19.629Z,100.00
2022-10-26T23:26:46.264Z,100.00
2022-10-26T23:29:12.980Z,100.00
2022-10-26T23:31:39.662Z,100.00
2022-10-26T23:34:06.378Z,100.00
2022-10-26T23:36:34.427Z,100.00
2022-10-26T23:39:01.351Z,100.00
2022-10-26T23:41:28.943Z,100.00
2022-10-26T23:43:55.630Z,100.00
2022-10-26T23:46:22.252Z,100.00
2022-10-26T23:48:48.930Z,100.00
2022-10-26T23:51:15.555Z,100.00
2022-10-26T23:53:43.554Z,100.00
2022-10-26T23:56:10.185Z,100.00
2022-10-26T23:58:36.851Z,100.00
